Time;durP1;ratioP1;P1;durP2;ratioP2;P2;SDS_P1;SDS_P2;PMS_P1;PMS_P2;Temp;Humidity;BMP_temperature;BMP_pressure;BME280_temperature;BME280_humidity;BME280_pressure;Samples;Min_cycle;Max_cycle;Signal;HPM_P1;HPM_P2
2024/04/10 00:01:34;;;;;;;;;;;;;;;15.97;41.76;94650.16;4444905;26;19965;-58
2024/04/10 00:03:35;;;;;;;;;;;;;;;15.95;41.48;94649.53;4447020;26;20026;-58
2024/04/10 00:05:37;;;;;;;;;;;;;;;15.89;42.06;94650.28;4444660;26;20295;-57
2024/04/10 00:07:39;;;;;;;;;;;;;;;15.89;42.00;94645.00;4444492;26;19937;-59
2024/04/10 00:09:41;;;;;;;;;;;;;;;15.94;41.74;94641.81;4444821;26;19929;-59
2024/04/10 00:11:43;;;;;;;;;;;;;;;15.99;41.24;94643.88;4445340;26;19933;-59
2024/04/10 00:13:44;;;;;;;;;;;;;;;15.94;41.47;94639.97;4441815;26;19940;-61
2024/04/10 00:15:56;;;;;;;;;;;;;;;15.94;42.07;94639.97;4449794;26;19964;-57
2024/04/10 00:17:57;;;;;;;;;;;;;;;15.88;41.80;94638.09;4442117;26;20003;-58
2024/04/10 00:19:59;;;;;;;;;;;;;;;15.82;41.81;94636.22;4432539;26;20546;-59
2024/04/10 00:22:03;;;;;;;;;;;;;;;15.76;41.83;94640.44;4441748;26;20175;-58
2024/04/10 00:24:05;;;;;;;;;;;;;;;15.74;41.94;94641.66;4443045;26;20002;-58
2024/04/10 00:26:07;;;;;;;;;;;;;;;15.74;41.75;94636.38;4432758;26;20387;-58
2024/04/10 00:28:09;;;;;;;;;;;;;;;15.75;41.65;94641.47;4438948;26;19957;-58
2024/04/10 00:30:11;;;;;;;;;;;;;;;15.74;41.91;94639.00;4444592;26;19938;-59
2024/04/10 00:32:13;;;;;;;;;;;;;;;15.70;41.76;94638.56;4438760;26;19937;-58
2024/04/10 00:34:15;;;;;;;;;;;;;;;15.62;41.60;94641.34;4446506;26;20216;-58
2024/04/10 00:36:17;;;;;;;;;;;;;;;15.56;41.97;94645.56;4449245;26;19977;-59
2024/04/10 00:38:18;;;;;;;;;;;;;;;15.52;42.30;94639.03;4438749;26;19934;-57
2024/04/10 00:40:20;;;;;;;;;;;;;;;15.48;41.98;94642.25;4443959;26;20294;-60
2024/04/10 00:42:23;;;;;;;;;;;;;;;15.45;42.02;94647.91;4445966;26;19941;-58
2024/04/10 00:44:25;;;;;;;;;;;;;;;15.49;42.08;94652.63;4458010;26;19930;-60
2024/04/10 00:46:27;;;;;;;;;;;;;;;15.55;42.33;94638.66;4430274;26;19940;-59
2024/04/10 00:48:29;;;;;;;;;;;;;;;15.58;42.15;94640.09;4445238;26;19939;-59
2024/04/10 00:50:31;;;;;;;;;;;;;;;15.61;42.42;94641.53;4435755;26;20001;-58
2024/04/10 00:52:33;;;;;;;;;;;;;;;15.59;42.30;94638.25;4436046;26;19930;-59
2024/04/10 00:54:34;;;;;;;;;;;;;;;15.60;42.58;94637.28;4446866;26;19967;-58
2024/04/10 00:56:36;;;;;;;;;;;;;;;15.56;42.45;94636.81;4440562;26;19929;-59
2024/04/10 00:58:38;;;;;;;;;;;;;;;15.50;42.27;94632.31;4454411;26;20002;-58
2024/04/10 01:00:40;;;;;;;;;;;;;;;15.43;42.51;94644.66;4465844;26;20067;-58
2024/04/10 01:02:42;;;;;;;;;;;;;;;15.38;42.71;94629.38;4462213;26;20382;-59
2024/04/10 01:04:44;;;;;;;;;;;;;;;15.37;42.90;94630.38;4449329;26;19936;-59
2024/04/10 01:06:46;;;;;;;;;;;;;;;15.38;42.69;94624.09;4446751;26;20429;-59
2024/04/10 01:08:47;;;;;;;;;;;;;;;15.35;42.72;94633.19;4439929;26;19999;-59
2024/04/10 01:10:49;;;;;;;;;;;;;;;15.35;43.15;94627.91;4434304;26;19973;-58
2024/04/10 01:12:51;;;;;;;;;;;;;;;15.31;43.50;94628.50;4451147;26;19929;-57
2024/04/10 01:14:53;;;;;;;;;;;;;;;15.20;43.32;94624.53;4449605;26;19962;-59
2024/04/10 01:16:55;;;;;;;;;;;;;;;15.13;43.91;94632.41;4444085;26;19957;-59
2024/04/10 01:18:57;;;;;;;;;;;;;;;15.17;44.06;94630.22;4442559;26;19941;-58
2024/04/10 01:20:59;;;;;;;;;;;;;;;15.20;44.08;94635.09;4462039;26;19937;-58
2024/04/10 01:23:02;;;;;;;;;;;;;;;15.18;43.22;94631.00;4438746;26;19930;-58
2024/04/10 01:25:05;;;;;;;;;;;;;;;15.18;42.99;94631.81;4449578;26;20296;-60
2024/04/10 01:27:06;;;;;;;;;;;;;;;15.21;42.92;94625.34;4452709;26;19930;-59
2024/04/10 01:29:09;;;;;;;;;;;;;;;15.23;43.18;94621.53;4444844;26;20049;-60
2024/04/10 01:31:11;;;;;;;;;;;;;;;15.25;42.86;94621.31;4444707;26;20400;-58
2024/04/10 01:33:12;;;;;;;;;;;;;;;15.23;43.10;94623.34;4446012;26;19958;-59
2024/04/10 01:35:14;;;;;;;;;;;;;;;15.20;43.08;94615.81;4461503;26;19941;-57
2024/04/10 01:37:17;;;;;;;;;;;;;;;15.18;43.59;94613.34;4445037;26;19930;-58
2024/04/10 01:39:18;;;;;;;;;;;;;;;15.24;43.73;94614.44;4444239;26;20015;-60
2024/04/10 01:41:20;;;;;;;;;;;;;;;15.26;43.47;94609.78;4444266;26;20437;-57
2024/04/10 01:43:22;;;;;;;;;;;;;;;15.20;43.76;94616.63;4444758;26;19999;-57
2024/04/10 01:45:24;;;;;;;;;;;;;;;15.19;43.64;94615.00;4445178;26;20010;-58
2024/04/10 01:47:26;;;;;;;;;;;;;;;15.09;43.37;94615.31;4446505;26;20225;-59
2024/04/10 01:49:28;;;;;;;;;;;;;;;15.06;43.70;94618.34;4444799;26;19941;-58
2024/04/10 01:51:30;;;;;;;;;;;;;;;15.10;43.71;94618.75;4446740;26;21131;-56
2024/04/10 01:53:32;;;;;;;;;;;;;;;15.13;44.39;94619.19;4445333;26;19953;-62
2024/04/10 01:55:34;;;;;;;;;;;;;;;15.15;44.11;94611.91;4424828;26;20004;-59
2024/04/10 01:57:35;;;;;;;;;;;;;;;15.17;44.25;94608.28;4431285;26;20016;-60
2024/04/10 01:59:37;;;;;;;;;;;;;;;15.10;44.23;94619.59;4443895;26;19936;-59
2024/04/10 02:01:39;;;;;;;;;;;;;;;15.02;44.77;94609.16;4446885;26;20305;-58
2024/04/10 02:03:41;;;;;;;;;;;;;;;15.00;44.47;94613.81;4463174;26;19936;-57
2024/04/10 02:05:43;;;;;;;;;;;;;;;14.99;44.86;94606.88;4435620;26;19981;-58
2024/04/10 02:07:45;;;;;;;;;;;;;;;14.99;45.23;94606.88;4447691;26;20257;-59
2024/04/10 02:09:47;;;;;;;;;;;;;;;14.99;45.50;94614.78;4435017;26;20369;-61
2024/04/10 02:11:49;;;;;;;;;;;;;;;14.91;45.73;94609.66;4445491;26;20367;-60
2024/04/10 02:13:51;;;;;;;;;;;;;;;14.92;45.77;94613.91;4449277;26;19937;-56
2024/04/10 02:15:53;;;;;;;;;;;;;;;14.90;45.69;94613.28;4446035;26;20048;-57
2024/04/10 02:17:54;;;;;;;;;;;;;;;14.89;45.62;94614.31;4443440;26;19937;-57
2024/04/10 02:19:58;;;;;;;;;;;;;;;14.88;45.86;94612.66;4451350;26;19936;-58
2024/04/10 02:22:00;;;;;;;;;;;;;;;14.84;46.08;94608.75;4452300;26;20359;-58
2024/04/10 02:24:01;;;;;;;;;;;;;;;14.83;45.93;94604.50;4437224;26;19929;-60
2024/04/10 02:26:10;;;;;;;;;;;;;;;14.81;46.21;94606.50;4450095;26;20692;-60
2024/04/10 02:28:12;;;;;;;;;;;;;;;14.80;46.16;94602.22;4426641;26;19934;-58
2024/04/10 02:30:15;;;;;;;;;;;;;;;14.81;45.97;94609.16;4466942;26;20240;-58
2024/04/10 02:32:16;;;;;;;;;;;;;;;14.83;46.05;94607.16;4426233;26;20344;-58
2024/04/10 02:34:18;;;;;;;;;;;;;;;14.82;46.16;94603.69;4436733;26;19960;-58
2024/04/10 02:36:20;;;;;;;;;;;;;;;14.81;45.96;94611.78;4439844;26;20012;-57
2024/04/10 02:38:22;;;;;;;;;;;;;;;14.82;46.05;94606.34;4447183;26;19929;-57
2024/04/10 02:40:29;;;;;;;;;;;;;;;14.83;45.93;94607.16;4475406;26;19929;-59
2024/04/10 02:42:33;;;;;;;;;;;;;;;14.80;46.12;94612.78;4459374;26;19974;-60
2024/04/10 02:44:35;;;;;;;;;;;;;;;14.79;46.17;94611.97;4447085;26;19929;-58
2024/04/10 02:46:37;;;;;;;;;;;;;;;14.80;46.68;94610.97;4444770;26;20008;-60
2024/04/10 02:48:39;;;;;;;;;;;;;;;14.76;46.68;94612.34;4455747;26;19998;-58
2024/04/10 02:50:41;;;;;;;;;;;;;;;14.73;46.81;94616.19;4461061;26;19965;-58
2024/04/10 02:52:43;;;;;;;;;;;;;;;14.71;46.83;94618.19;4462114;26;19933;-57
2024/04/10 02:54:44;;;;;;;;;;;;;;;14.72;46.90;94613.72;4452435;26;20507;-59
2024/04/10 02:56:46;;;;;;;;;;;;;;;14.64;46.95;94624.38;4445620;26;20128;-58
2024/04/10 02:58:48;;;;;;;;;;;;;;;14.65;46.81;94626.03;4454826;26;19940;-57
2024/04/10 03:00:51;;;;;;;;;;;;;;;14.61;46.83;94627.41;4455133;26;19937;-57
2024/04/10 03:02:53;;;;;;;;;;;;;;;14.51;47.11;94630.28;4436610;26;19960;-60
2024/04/10 03:07:16;;;;;;;;;;;;;;;14.44;47.62;94624.94;4446133;26;19929;-59
2024/04/10 03:09:17;;;;;;;;;;;;;;;14.45;47.56;94625.75;4446504;26;19961;-58
2024/04/10 03:11:19;;;;;;;;;;;;;;;14.44;47.98;94624.13;4443043;26;19942;-60
2024/04/10 03:13:21;;;;;;;;;;;;;;;14.42;48.17;94621.66;4446316;26;19930;-57
2024/04/10 03:15:23;;;;;;;;;;;;;;;14.42;48.00;94620.84;4447613;26;19945;-57
2024/04/10 03:17:26;;;;;;;;;;;;;;;14.41;47.40;94621.84;4447454;26;19958;-59
2024/04/10 03:19:28;;;;;;;;;;;;;;;14.41;47.56;94619.22;4422671;26;19937;-58
2024/04/10 03:21:30;;;;;;;;;;;;;;;14.40;47.40;94622.84;4439253;26;19936;-56
2024/04/10 03:23:32;;;;;;;;;;;;;;;14.41;47.45;94621.84;4438167;26;19930;-58
2024/04/10 03:25:34;;;;;;;;;;;;;;;14.37;47.38;94618.78;4464679;26;19929;-59
2024/04/10 03:27:37;;;;;;;;;;;;;;;14.39;47.06;94615.94;4456562;26;19937;-59
2024/04/10 03:29:38;;;;;;;;;;;;;;;14.34;46.86;94616.50;4445653;26;19941;-60
2024/04/10 03:31:40;;;;;;;;;;;;;;;14.29;47.18;94609.16;4441578;26;19930;-58
2024/04/10 03:33:42;;;;;;;;;;;;;;;14.30;47.76;94617.84;4445174;26;19957;-63
2024/04/10 03:35:44;;;;;;;;;;;;;;;14.30;47.50;94615.22;4438259;26;19930;-57
2024/04/10 03:37:46;;;;;;;;;;;;;;;14.25;47.76;94613.16;4449146;26;19930;-60
2024/04/10 03:39:48;;;;;;;;;;;;;;;14.21;48.24;94618.97;4453616;26;19929;-60
2024/04/10 03:41:49;;;;;;;;;;;;;;;14.17;48.33;94618.50;4448696;26;19933;-57
2024/04/10 03:43:51;;;;;;;;;;;;;;;14.17;48.56;94622.97;4442093;26;20014;-57
2024/04/10 03:45:53;;;;;;;;;;;;;;;14.17;48.44;94623.78;4446021;26;19929;-56
2024/04/10 03:47:55;;;;;;;;;;;;;;;14.19;48.10;94621.78;4446347;26;20106;-56
2024/04/10 03:49:57;;;;;;;;;;;;;;;14.17;47.88;94629.03;4431356;26;19938;-58
2024/04/10 03:51:59;;;;;;;;;;;;;;;14.16;48.05;94631.88;4445957;26;19930;-59
2024/04/10 03:54:01;;;;;;;;;;;;;;;14.15;47.88;94628.41;4433598;26;19936;-56
2024/04/10 03:56:03;;;;;;;;;;;;;;;14.17;47.86;94622.97;4441600;26;19936;-57
2024/04/10 03:58:04;;;;;;;;;;;;;;;14.15;47.65;94625.78;4429992;26;20344;-57
2024/04/10 04:00:07;;;;;;;;;;;;;;;14.16;47.68;94626.63;4429844;26;19937;-58
2024/04/10 04:02:09;;;;;;;;;;;;;;;14.16;47.92;94627.44;4445190;26;19941;-58
2024/04/10 04:04:11;;;;;;;;;;;;;;;14.14;47.87;94624.16;4447594;26;19930;-59
2024/04/10 04:06:13;;;;;;;;;;;;;;;14.09;48.18;94627.34;4429837;26;19938;-59
2024/04/10 04:08:15;;;;;;;;;;;;;;;14.13;48.16;94633.03;4446779;26;19957;-60
2024/04/10 04:10:17;;;;;;;;;;;;;;;14.15;48.12;94636.31;4446075;26;19930;-58
2024/04/10 04:12:19;;;;;;;;;;;;;;;14.18;47.61;94632.53;4444103;26;19937;-59
2024/04/10 04:14:24;;;;;;;;;;;;;;;14.24;47.48;94639.66;4471818;26;19929;-60
2024/04/10 04:16:26;;;;;;;;;;;;;;;14.24;47.77;94635.25;4466520;26;20221;-58
2024/04/10 04:18:28;;;;;;;;;;;;;;;14.22;47.59;94637.25;4452600;26;19929;-57
2024/04/10 04:20:31;;;;;;;;;;;;;;;14.22;47.71;94634.59;4430660;26;19961;-56
2024/04/10 04:22:33;;;;;;;;;;;;;;;14.23;47.87;94633.59;4433444;26;20037;-60
2024/04/10 04:24:35;;;;;;;;;;;;;;;14.28;47.71;94625.97;4446509;26;19998;-58
2024/04/10 04:26:37;;;;;;;;;;;;;;;14.34;47.93;94635.75;4444675;26;19929;-57
2024/04/10 04:28:39;;;;;;;;;;;;;;;14.38;48.16;94638.03;4444694;26;19969;-58
2024/04/10 04:30:50;;;;;;;;;;;;;;;14.41;48.12;94635.03;4429684;26;19945;-59
2024/04/10 04:32:52;;;;;;;;;;;;;;;14.43;47.76;94633.84;4423900;26;19996;-59
2024/04/10 04:34:54;;;;;;;;;;;;;;;14.51;47.77;94635.56;4425878;26;19942;-60
2024/04/10 04:36:56;;;;;;;;;;;;;;;14.48;48.06;94642.03;4444041;26;19929;-62
2024/04/10 04:38:58;;;;;;;;;;;;;;;14.54;48.27;94649.19;4460294;26;19936;-59
2024/04/10 04:41:00;;;;;;;;;;;;;;;14.55;48.14;94644.75;4445168;26;19941;-59
2024/04/10 04:43:08;;;;;;;;;;;;;;;14.55;48.10;94652.66;4455167;26;19940;-60
2024/04/10 04:45:10;;;;;;;;;;;;;;;14.56;48.30;94648.22;4439943;26;20110;-60
2024/04/10 04:47:11;;;;;;;;;;;;;;;14.61;48.45;94644.03;4438229;26;19961;-58
2024/04/10 04:49:13;;;;;;;;;;;;;;;14.68;48.27;94646.75;4443370;26;19930;-58
2024/04/10 04:51:15;;;;;;;;;;;;;;;14.74;47.86;94648.63;4445083;26;20010;-60
2024/04/10 04:53:17;;;;;;;;;;;;;;;14.79;47.96;94648.88;4444160;26;19938;-61
2024/04/10 04:55:19;;;;;;;;;;;;;;;14.82;47.60;94653.81;4468209;26;19933;-60
2024/04/10 04:57:21;;;;;;;;;;;;;;;14.77;47.43;94653.53;4458427;26;19937;-58
2024/04/10 04:59:23;;;;;;;;;;;;;;;14.79;47.56;94658.63;4440781;26;19938;-60
2024/04/10 05:01:25;;;;;;;;;;;;;;;14.90;46.96;94655.50;4443336;26;20361;-60
2024/04/10 05:05:47;;;;;;;;;;;;;;;15.02;46.76;94659.28;4452802;26;20321;-60
2024/04/10 05:07:49;;;;;;;;;;;;;;;15.07;47.04;94654.25;4445330;26;19953;-60
2024/04/10 05:09:51;;;;;;;;;;;;;;;15.12;47.42;94661.59;4472704;26;20009;-61
2024/04/10 05:11:52;;;;;;;;;;;;;;;15.25;46.91;94666.19;4472702;26;19937;-59
2024/04/10 05:13:54;;;;;;;;;;;;;;;15.27;46.45;94661.53;4448140;26;19937;-60
2024/04/10 05:15:56;;;;;;;;;;;;;;;15.29;46.53;94665.66;4440815;26;20061;-58
2024/04/10 05:17:58;;;;;;;;;;;;;;;15.26;46.16;94663.38;4452319;26;19936;-59
2024/04/10 05:20:00;;;;;;;;;;;;;;;15.27;46.29;94657.09;4448651;26;19957;-61
2024/04/10 05:22:04;;;;;;;;;;;;;;;15.27;45.87;94656.25;4461301;26;19929;-59
2024/04/10 05:24:05;;;;;;;;;;;;;;;15.39;45.55;94649.47;4444606;26;19941;-60
2024/04/10 05:26:07;;;;;;;;;;;;;;;15.49;45.22;94651.81;4452889;26;20044;-61
2024/04/10 05:28:09;;;;;;;;;;;;;;;15.55;45.87;94659.78;4442880;26;19937;-59
2024/04/10 05:30:12;;;;;;;;;;;;;;;15.65;44.94;94662.06;4447234;26;19941;-61
2024/04/10 05:32:14;;;;;;;;;;;;;;;15.71;45.33;94664.00;4432063;26;19941;-58
2024/04/10 05:34:16;;;;;;;;;;;;;;;15.75;45.59;94657.31;4440191;26;20385;-61
2024/04/10 05:36:18;;;;;;;;;;;;;;;15.81;44.71;94668.13;4455890;26;19949;-61
2024/04/10 05:38:21;;;;;;;;;;;;;;;15.84;44.37;94667.75;4445454;26;20011;-58
2024/04/10 05:40:22;;;;;;;;;;;;;;;15.85;44.15;94670.22;4452616;26;19936;-59
2024/04/10 05:42:24;;;;;;;;;;;;;;;15.91;44.66;94669.41;4447549;26;19937;-59
2024/04/10 05:44:26;;;;;;;;;;;;;;;15.98;44.45;94674.75;4432266;26;19957;-60
2024/04/10 05:46:31;;;;;;;;;;;;;;;15.99;44.64;94671.09;4448526;26;20368;-59
2024/04/10 05:48:33;;;;;;;;;;;;;;;16.02;44.33;94673.34;4441840;26;20015;-59
2024/04/10 05:50:35;;;;;;;;;;;;;;;16.06;43.49;94676.44;4438660;26;20344;-58
2024/04/10 05:52:39;;;;;;;;;;;;;;;16.11;43.22;94668.72;4455735;26;19979;-58
2024/04/10 05:54:41;;;;;;;;;;;;;;;16.23;43.33;94666.38;4443699;26;19983;-61
2024/04/10 05:56:43;;;;;;;;;;;;;;;16.29;43.37;94673.53;4444612;26;20402;-61
2024/04/10 05:58:45;;;;;;;;;;;;;;;16.33;42.78;94670.28;4457775;26;20719;-60
2024/04/10 06:00:47;;;;;;;;;;;;;;;16.17;42.90;94673.25;4455360;26;20019;-62
2024/04/10 06:02:50;;;;;;;;;;;;;;;16.14;43.29;94669.16;4439892;26;20028;-64
2024/04/10 06:04:55;;;;;;;;;;;;;;;16.22;43.25;94672.66;4449545;26;19936;-66
2024/04/10 06:06:57;;;;;;;;;;;;;;;16.17;43.24;94671.44;4434556;26;19945;-61
2024/04/10 06:08:59;;;;;;;;;;;;;;;15.97;43.58;94670.47;4444158;26;19995;-64
2024/04/10 06:11:01;;;;;;;;;;;;;;;15.71;43.43;94673.72;4443329;26;19966;-61
2024/04/10 06:13:03;;;;;;;;;;;;;;;15.73;43.81;94669.09;4444626;26;19993;-62
2024/04/10 06:15:05;;;;;;;;;;;;;;;16.01;43.71;94670.91;4444435;26;19979;-62
2024/04/10 06:17:07;;;;;;;;;;;;;;;16.22;42.66;94668.22;4442017;26;19930;-61
2024/04/10 06:19:09;;;;;;;;;;;;;;;16.38;42.28;94667.88;4441912;26;20360;-63
2024/04/10 06:21:10;;;;;;;;;;;;;;;16.59;41.45;94666.16;4429301;26;19933;-60
2024/04/10 06:23:13;;;;;;;;;;;;;;;16.52;41.29;94666.13;4439492;26;19940;-61
2024/04/10 06:25:14;;;;;;;;;;;;;;;16.69;41.18;94666.59;4452380;26;19930;-62
2024/04/10 06:27:16;;;;;;;;;;;;;;;16.88;40.84;94670.34;4447160;26;20016;-65
2024/04/10 06:29:18;;;;;;;;;;;;;;;16.83;40.92;94670.13;4462054;26;19936;-61
2024/04/10 06:31:20;;;;;;;;;;;;;;;16.61;40.63;94676.53;4449442;26;20006;-63
2024/04/10 06:33:22;;;;;;;;;;;;;;;16.49;41.27;94676.28;4440236;26;20021;-62
2024/04/10 06:35:24;;;;;;;;;;;;;;;16.61;41.45;94674.72;4436186;26;19945;-62
2024/04/10 06:37:25;;;;;;;;;;;;;;;16.83;41.31;94674.63;4448032;26;20376;-63
2024/04/10 06:39:29;;;;;;;;;;;;;;;16.92;41.12;94662.84;4456764;26;19929;-61
2024/04/10 06:41:30;;;;;;;;;;;;;;;16.73;42.03;94667.81;4441262;26;20055;-59
2024/04/10 06:43:33;;;;;;;;;;;;;;;16.68;41.92;94672.91;4439804;26;20497;-61
2024/04/10 06:45:35;;;;;;;;;;;;;;;16.52;42.22;94667.94;4430841;26;20026;-66
2024/04/10 06:47:36;;;;;;;;;;;;;;;16.49;42.53;94661.22;4440145;26;19962;-63
2024/04/10 06:49:42;;;;;;;;;;;;;;;16.63;42.09;94667.41;4439255;26;19930;-61
2024/04/10 06:51:44;;;;;;;;;;;;;;;16.79;42.32;94656.44;4448151;26;20052;-61
2024/04/10 06:53:45;;;;;;;;;;;;;;;16.83;41.72;94662.19;4436964;26;19995;-61
2024/04/10 06:55:55;;;;;;;;;;;;;;;16.63;42.03;94664.75;4437643;26;19983;-61
2024/04/10 06:57:57;;;;;;;;;;;;;;;16.33;42.30;94665.00;4444291;26;20077;-61
2024/04/10 07:00:02;;;;;;;;;;;;;;;16.42;42.35;94660.38;4444213;26;19938;-59
2024/04/10 07:02:04;;;;;;;;;;;;;;;16.48;41.80;94666.72;4455942;26;20014;-63
2024/04/10 07:04:06;;;;;;;;;;;;;;;16.73;41.51;94667.81;4467966;26;19963;-62
2024/04/10 07:06:11;;;;;;;;;;;;;;;16.95;41.09;94657.13;4468432;26;19941;-64
2024/04/10 07:08:13;;;;;;;;;;;;;;;17.29;40.80;94663.31;4441590;26;20252;-62
2024/04/10 07:10:15;;;;;;;;;;;;;;;17.53;40.16;94667.22;4443674;26;19934;-61
2024/04/10 07:12:17;;;;;;;;;;;;;;;17.72;39.51;94655.00;4442716;26;20044;-59
2024/04/10 07:14:19;;;;;;;;;;;;;;;17.93;39.14;94667.25;4443818;26;20344;-58
2024/04/10 07:16:26;;;;;;;;;;;;;;;18.15;38.74;94659.88;4426644;26;20005;-62
2024/04/10 07:18:30;;;;;;;;;;;;;;;18.37;38.22;94660.47;4441970;26;19936;-61
2024/04/10 07:20:32;;;;;;;;;;;;;;;18.51;38.28;94656.75;4456141;26;20534;-61
2024/04/10 07:22:34;;;;;;;;;;;;;;;18.66;38.17;94658.34;4444434;26;19929;-63
2024/04/10 07:24:36;;;;;;;;;;;;;;;18.81;37.82;94659.72;4458574;26;20084;-63
2024/04/10 07:26:38;;;;;;;;;;;;;;;18.95;37.43;94659.66;4467257;26;19936;-62
2024/04/10 07:28:41;;;;;;;;;;;;;;;19.09;37.05;94655.91;4451380;26;19944;-63
2024/04/10 07:30:50;;;;;;;;;;;;;;;19.00;36.78;94650.03;4467555;26;19937;-61
2024/04/10 07:32:51;;;;;;;;;;;;;;;18.73;37.03;94657.25;4455828;26;20644;-60
2024/04/10 07:34:54;;;;;;;;;;;;;;;18.63;37.18;94663.03;4464259;26;19963;-62
2024/04/10 07:36:55;;;;;;;;;;;;;;;18.13;37.66;94656.63;4428632;26;19930;-62
2024/04/10 07:38:57;;;;;;;;;;;;;;;18.03;37.83;94657.06;4440645;26;19999;-63
2024/04/10 07:40:59;;;;;;;;;;;;;;;18.14;37.65;94659.06;4437181;26;19945;-61
2024/04/10 07:43:01;;;;;;;;;;;;;;;18.33;38.21;94657.41;4438082;26;19937;-61
2024/04/10 07:45:03;;;;;;;;;;;;;;;18.71;37.86;94659.31;4435989;26;19930;-62
2024/04/10 07:47:05;;;;;;;;;;;;;;;19.05;37.32;94660.00;4432429;26;19985;-62
2024/04/10 07:49:09;;;;;;;;;;;;;;;19.12;36.36;94660.81;4449730;26;19936;-61
2024/04/10 07:51:13;;;;;;;;;;;;;;;19.27;35.96;94655.19;4445645;26;19930;-62
2024/04/10 07:53:15;;;;;;;;;;;;;;;19.41;35.99;94661.25;4441488;26;19988;-62
2024/04/10 07:55:16;;;;;;;;;;;;;;;19.58;35.95;94665.00;4445813;26;19929;-62
2024/04/10 07:57:19;;;;;;;;;;;;;;;19.81;36.33;94667.13;4433970;26;19945;-63
2024/04/10 07:59:21;;;;;;;;;;;;;;;19.75;35.07;94665.31;4450226;26;19969;-62
2024/04/10 08:01:22;;;;;;;;;;;;;;;19.75;35.34;94667.16;4442471;26;20066;-62
2024/04/10 08:03:25;;;;;;;;;;;;;;;19.46;35.59;94665.91;4443467;26;20004;-61
2024/04/10 08:05:27;;;;;;;;;;;;;;;19.69;35.06;94665.34;4447053;26;20592;-65
2024/04/10 08:07:29;;;;;;;;;;;;;;;19.74;35.15;94658.34;4446485;26;20017;-62
2024/04/10 08:09:32;;;;;;;;;;;;;;;19.62;35.37;94666.19;4445615;26;19934;-61
2024/04/10 08:11:36;;;;;;;;;;;;;;;19.47;35.93;94660.38;4449727;26;19957;-63
2024/04/10 08:13:40;;;;;;;;;;;;;;;19.53;36.29;94662.19;4447436;26;19961;-61
2024/04/10 08:15:45;;;;;;;;;;;;;;;19.83;36.18;94666.88;4429899;26;20372;-63
2024/04/10 08:17:48;;;;;;;;;;;;;;;20.14;35.29;94659.88;4439263;26;20024;-59
2024/04/10 08:19:51;;;;;;;;;;;;;;;20.08;35.52;94653.56;4424845;26;19937;-62
2024/04/10 08:21:53;;;;;;;;;;;;;;;20.00;35.77;94657.34;4466932;26;19960;-63
2024/04/10 08:23:54;;;;;;;;;;;;;;;20.13;35.53;94651.06;4447005;26;20617;-64
2024/04/10 08:25:56;;;;;;;;;;;;;;;20.29;35.17;94656.88;4448243;26;19937;-65
2024/04/10 08:27:58;;;;;;;;;;;;;;;20.54;34.83;94649.63;4433757;26;19930;-65
2024/04/10 08:30:00;;;;;;;;;;;;;;;20.79;34.37;94652.22;4436363;26;19938;-61
2024/04/10 08:32:02;;;;;;;;;;;;;;;20.95;34.28;94658.81;4443299;26;20012;-62
2024/04/10 08:34:04;;;;;;;;;;;;;;;20.80;34.04;94653.88;4451682;26;19933;-59
2024/04/10 08:36:08;;;;;;;;;;;;;;;20.85;34.60;94661.19;4446173;26;19960;-62
2024/04/10 08:38:11;;;;;;;;;;;;;;;20.97;33.96;94662.06;4445180;26;20336;-61
2024/04/10 08:40:13;;;;;;;;;;;;;;;21.11;33.10;94664.53;4444603;26;19930;-62
2024/04/10 08:42:17;;;;;;;;;;;;;;;21.30;32.85;94655.47;4440655;26;19934;-62
2024/04/10 08:44:19;;;;;;;;;;;;;;;21.42;31.73;94659.03;4425515;26;19957;-61
2024/04/10 08:46:21;;;;;;;;;;;;;;;21.57;32.42;94655.91;4437568;26;21250;-62
2024/04/10 08:48:24;;;;;;;;;;;;;;;21.77;31.24;94657.44;4430175;26;19930;-64
2024/04/10 08:50:25;;;;;;;;;;;;;;;21.84;31.73;94652.84;4449579;26;19986;-61
2024/04/10 08:52:27;;;;;;;;;;;;;;;22.01;31.33;94648.44;4445811;26;19941;-62
2024/04/10 08:54:29;;;;;;;;;;;;;;;22.13;30.44;94647.63;4455837;26;19964;-63
2024/04/10 08:56:31;;;;;;;;;;;;;;;22.06;30.02;94653.06;4442904;26;19937;-63
2024/04/10 08:58:33;;;;;;;;;;;;;;;22.17;30.12;94659.47;4450430;26;19929;-62
2024/04/10 09:00:39;;;;;;;;;;;;;;;22.29;30.39;94657.63;4442952;26;19929;-61
2024/04/10 09:02:41;;;;;;;;;;;;;;;22.33;30.70;94658.81;4436966;26;21147;-63
2024/04/10 09:04:43;;;;;;;;;;;;;;;22.52;30.08;94659.47;4450784;26;19930;-60
2024/04/10 09:06:45;;;;;;;;;;;;;;;22.56;30.02;94654.47;4434049;26;19930;-62
2024/04/10 09:08:57;;;;;;;;;;;;;;;22.60;28.36;94658.28;4436901;26;19963;-63
2024/04/10 09:10:59;;;;;;;;;;;;;;;22.10;28.16;94656.91;4449411;26;19962;-61
2024/04/10 09:13:04;;;;;;;;;;;;;;;22.03;28.85;94658.88;4430270;26;19930;-62
2024/04/10 09:15:12;;;;;;;;;;;;;;;22.10;28.98;94654.25;4451439;26;19942;-60
2024/04/10 09:17:16;;;;;;;;;;;;;;;22.03;28.93;94657.03;4434746;26;19941;-62
2024/04/10 09:19:18;;;;;;;;;;;;;;;22.21;29.18;94658.75;4442835;26;20118;-62
2024/04/10 09:21:20;;;;;;;;;;;;;;;22.40;28.42;94653.34;4441086;26;19933;-61
2024/04/10 09:23:22;;;;;;;;;;;;;;;22.62;27.79;94654.34;4446874;26;20147;-61
2024/04/10 09:25:24;;;;;;;;;;;;;;;22.86;27.35;94652.41;4441156;26;20054;-61
2024/04/10 09:27:26;;;;;;;;;;;;;;;23.00;27.10;94661.03;4433666;26;19944;-62
2024/04/10 09:29:30;;;;;;;;;;;;;;;22.99;26.97;94648.66;4442726;26;19937;-60
2024/04/10 09:31:33;;;;;;;;;;;;;;;23.11;26.54;94651.34;4443402;26;19930;-60
2024/04/10 09:33:37;;;;;;;;;;;;;;;23.21;25.26;94651.53;4436249;26;19936;-59
2024/04/10 09:35:39;;;;;;;;;;;;;;;23.27;25.69;94647.91;4451864;26;19937;-60
2024/04/10 09:37:41;;;;;;;;;;;;;;;23.28;25.63;94641.50;4447402;26;20363;-59
2024/04/10 09:39:47;;;;;;;;;;;;;;;23.22;25.83;94647.81;4436735;26;20384;-61
2024/04/10 09:41:58;;;;;;;;;;;;;;;23.21;25.65;94640.84;4437452;26;20057;-62
2024/04/10 09:44:02;;;;;;;;;;;;;;;23.15;25.58;94652.50;4442882;26;19970;-63
2024/04/10 09:46:04;;;;;;;;;;;;;;;23.04;24.50;94643.47;4430270;26;19938;-60
2024/04/10 09:48:08;;;;;;;;;;;;;;;22.78;24.89;94642.13;4465041;26;20377;-62
2024/04/10 09:50:14;;;;;;;;;;;;;;;22.65;25.17;94642.38;4466615;26;20043;-62
2024/04/10 09:52:16;;;;;;;;;;;;;;;22.78;24.33;94642.13;4472324;26;19998;-62
2024/04/10 09:54:18;;;;;;;;;;;;;;;23.12;24.61;94647.59;4457327;26;19934;-62
2024/04/10 09:56:20;;;;;;;;;;;;;;;23.29;24.19;94632.41;4437270;26;20063;-63
2024/04/10 10:00:04;;;;;;;;;;;;;;;23.71;23.41;94641.97;4570362;25;20329;-62
2024/04/10 10:02:13;;;;;;;;;;;;;;;23.89;24.02;94633.72;4541379;25;19935;-64
2024/04/10 10:04:15;;;;;;;;;;;;;;;23.54;23.51;94633.94;4562048;25;19951;-62
2024/04/10 10:06:16;;;;;;;;;;;;;;;23.46;22.96;94634.31;4547489;25;20003;-62
2024/04/10 10:08:18;;;;;;;;;;;;;;;23.48;23.44;94632.22;4555381;25;20364;-62
2024/04/10 10:10:20;;;;;;;;;;;;;;;23.74;23.52;94635.31;4548529;25;19928;-63
2024/04/10 10:12:28;;;;;;;;;;;;;;;23.92;23.22;94630.59;4548870;25;21733;-63
2024/04/10 10:14:30;;;;;;;;;;;;;;;24.16;23.29;94625.06;4532169;26;20335;-62
2024/04/10 10:16:32;;;;;;;;;;;;;;;24.33;21.97;94622.34;4534483;26;19997;-60
2024/04/10 10:18:35;;;;;;;;;;;;;;;24.20;20.89;94622.66;4542797;25;20382;-62
2024/04/10 10:20:37;;;;;;;;;;;;;;;24.26;20.11;94616.34;4548493;25;20335;-61
2024/04/10 10:22:39;;;;;;;;;;;;;;;24.03;19.99;94618.16;4549236;25;19999;-60
2024/04/10 10:24:41;;;;;;;;;;;;;;;24.13;19.74;94612.13;4546738;26;19932;-62
2024/04/10 10:26:42;;;;;;;;;;;;;;;23.92;19.68;94616.41;4545531;25;20091;-62
2024/04/10 10:28:45;;;;;;;;;;;;;;;23.54;20.45;94615.22;4533669;25;19944;-61
2024/04/10 10:30:46;;;;;;;;;;;;;;;23.46;20.78;94612.94;4545768;25;19940;-64
2024/04/10 10:32:51;;;;;;;;;;;;;;;23.51;19.74;94618.38;4548219;25;20390;-64
2024/04/10 10:34:53;;;;;;;;;;;;;;;23.36;17.95;94613.59;4529121;25;20007;-62
2024/04/10 10:37:07;;;;;;;;;;;;;;;23.44;17.63;94615.03;4547689;25;21691;-63
2024/04/10 10:39:10;;;;;;;;;;;;;;;23.63;17.33;94615.63;4544579;26;20041;-62
2024/04/10 10:41:12;;;;;;;;;;;;;;;23.62;18.41;94616.69;4540837;26;19928;-63
2024/04/10 10:43:19;;;;;;;;;;;;;;;23.92;19.03;94608.38;4551702;25;19928;-62
2024/04/10 10:45:21;;;;;;;;;;;;;;;24.04;18.90;94611.75;4549263;26;19932;-60